x

Ilm3 - 27 Miles Se Of Wrightsville Beach, Nc (41037) Weather Station

2:08 - Sun 25th Sep 2016 All times are EDT. -4 hours from GMT.

  • Wind
    18mph, 22mph gusts
  • Sea Temp 82°f
  • Ar Temp 79°f
  • Sea Pressure 1018.9mb
  • Ilm3 - 27 Miles Se Of Wrightsville Beach, Nc
  • Ilm3 - 27 Miles Se Of Wrightsville Beach, Nc

More Historic Weather Station data

Upgrade to MSW Pro to gain access to the past 30 days of data for over 8000 Wavebouys and Weather Stations around the globe.

Join Pro

Comparision Forecast

View Surf forecast
   
Dom 09/25 2:08 18 22 mph 1018.9mb 82f 79f
1:08 16 20 mph 1019.2mb 82f 79f
12:08 13 20 mph 1019.6mb 82f 80f
11:08 16 20 mph 1019.9mb 81f 79f
10:08 16 22 mph 1019.5mb 81f 79f
9:08 16 20 mph 1019.3mb 81f 80f
8:08 16 20 mph 1018.8mb 81f 80f
7:08 16 20 mph 1018.3mb 81f 79f
6:08 16 20 mph 1017.8mb 82f 79f
5:08 16 20 mph 1017.3mb 82f 80f
4:08 13 18 mph 1016.9mb 82f 80f
3:08 9 13 mph 1017mb 82f 82f
2:08 9 11 mph 1017.1mb 82f 81f
1:08 9 11 mph 1017.2mb 82f 82f
12:08 7 9 mph 1017.3mb 82f 82f
Sáb 09/24 11:08 7 9 mph 1017.5mb 82f 81f
10:08 7 9 mph 1017.5mb 82f 81f
9:08 9 11 mph 1017.3mb 82f 80f
8:08 11 13 mph 1016.6mb 82f 80f
7:08 7 11 mph 1016.4mb 82f 80f
6:08 7 9 mph 1016.3mb 82f 81f
5:08 7 9 mph 1016.2mb 82f 81f
4:08 7 9 mph 1016.3mb 82f 81f
3:08 7 11 mph 1016.3mb 82f 80f
2:08 7 11 mph 1016.6mb 82f 79f
1:08 11 13 mph 1017.4mb 82f 79f
12:08 13 18 mph 1017.6mb 82f 79f
11:08 13 18 mph 1017.5mb 81f 79f
10:08 13 18 mph 1017.3mb 81f 80f
9:08 13 16 mph 1017.1mb 81f 80f
8:08 13 18 mph 1016.8mb 81f 80f
7:08 13 18 mph 1016.3mb 81f 80f
6:08 13 16 mph 1015.5mb 81f 80f
5:08 13 18 mph 1015.2mb 81f 80f
4:08 11 18 mph 1014.9mb 81f 79f
3:08 9 13 mph 1015.1mb 81f 80f
2:08 9 11 mph 1015.4mb 81f 80f
1:08 7 11 mph 1015.6mb 82f 80f
12:08 9 11 mph 1015.6mb 82f 80f
Sex 09/23 11:08 9 11 mph 1015.4mb 82f 79f
10:08 7 9 mph 1015.2mb 82f 79f
9:08 9 11 mph 1015.2mb 82f 78f
8:08 9 13 mph 1015.1mb 82f 78f
7:08 11 13 mph 1015mb 82f 80f
6:08 2 4 mph 1014.9mb 82f 81f
5:08 4 7 mph 1014.4mb 82f 80f
4:08 7 9 mph 1014.4mb 82f 80f
3:08 9 13 mph 1014.3mb 82f 80f
2:08 7 11 mph 1015.1mb 82f 79f
1:08 4 9 mph 1015.4mb 82f 79f
12:08 4 7 mph 1015.7mb 82f 82f
11:08 4 7 mph 1016mb 82f 83f
10:08 4 7 mph 1016.2mb 81f 81f
9:08 2 7 mph 1016.2mb 81f 82f
8:08 4 7 mph 1015.8mb 81f 82f
7:08 2
mph
1016.7mb 81f 80f
6:08  -  2 mph 1015.6mb 81f 79f
5:08 16 22 mph 1014.8mb 81f 77f
4:08 4 9 mph 1014.7mb 82f 81f
3:08 4 9 mph 1014.8mb 82f 81f
2:08 7 9 mph 1014.9mb 82f 81f
1:08 9 13 mph 1014.8mb 82f 82f
12:08 11 13 mph 1015.4mb 82f 82f
Qui 09/22 11:08 7 11 mph 1015.6mb 82f 82f
10:08 7 11 mph 1015.3mb 82f 82f
9:08 9 13 mph 1015.1mb 82f 81f
8:08 9 13 mph 1014.7mb 82f 81f
7:08 9 13 mph 1014.7mb 82f 81f
6:08 11 13 mph 1014.5mb 82f 80f
5:08 13 18 mph 1014.3mb 82f 80f
3:08 11 16 mph 1014.6mb 82f 81f
2:08 7 13 mph 1015.4mb 82f 81f
1:08 11 16 mph 1015.6mb 82f 80f
12:08 13 20 mph 1015.9mb 82f 78f
11:08 9 13 mph 1016.4mb 82f 82f
10:08 9 13 mph 1016.1mb 82f 82f
9:08 11 13 mph 1016.1mb 82f 82f
8:08 9 11 mph 1015.7mb 82f 81f
7:08 9 11 mph 1015.3mb 82f 80f
6:08 4 7 mph 1014.8mb 82f 80f
5:08 7 9 mph 1014.6mb 82f 80f
4:08 7 9 mph 1014.5mb 82f 80f
3:08 4 7 mph 1014.6mb 82f 80f
2:08 7 11 mph 1014.9mb 82f 80f
1:08 9 11 mph 1015.1mb 82f 80f
12:08 7 9 mph 1015.4mb 82f 80f
Qua 09/21 11:08 4 9 mph 1015.6mb 82f 80f
10:08 7 9 mph 1015.4mb 82f 80f
9:08 4 7 mph 1015.3mb 83f 80f
8:08 4 7 mph 1014.9mb 83f 80f